createdAt,value
2019-04-27T00:03:41.200Z,81.90
2019-04-27T00:08:46.627Z,83.20
2019-04-27T00:13:51.533Z,82.70
2019-04-27T00:19:13.551Z,82.60
2019-04-27T00:24:21.124Z,82.70
2019-04-27T00:29:26.048Z,82.50
2019-04-27T00:34:31.005Z,83.20
2019-04-27T00:39:46.283Z,83.10
2019-04-27T00:44:51.302Z,83.30
2019-04-27T00:49:56.150Z,82.90
2019-04-27T00:55:03.030Z,83.60
2019-04-27T01:00:09.477Z,83.00
2019-04-27T01:05:23.105Z,83.30
2019-04-27T01:10:28.259Z,83.70
2019-04-27T01:15:34.107Z,84.20
2019-04-27T01:20:39.028Z,85.10
2019-04-27T01:25:45.506Z,85.80
2019-04-27T01:30:55.510Z,86.00
2019-04-27T01:36:00.492Z,85.10
2019-04-27T01:41:05.520Z,86.00
2019-04-27T01:46:10.374Z,86.40
2019-04-27T01:51:15.216Z,86.20
2019-04-27T01:56:20.719Z,86.50
2019-04-27T02:01:43.331Z,86.70
2019-04-27T02:06:51.661Z,87.10
2019-04-27T02:11:56.498Z,88.40
2019-04-27T02:17:01.362Z,88.40
2019-04-27T02:22:06.294Z,88.10
2019-04-27T02:27:11.919Z,88.40
2019-04-27T02:32:20.321Z,89.20
2019-04-27T02:37:24.971Z,88.20
2019-04-27T02:42:31.487Z,88.90
2019-04-27T02:47:36.317Z,88.90
2019-04-27T02:52:42.827Z,89.70
2019-04-27T02:57:49.926Z,90.00
2019-04-27T03:02:56.061Z,90.20
2019-04-27T03:08:00.904Z,90.10
2019-04-27T03:13:11.141Z,90.50
2019-04-27T03:18:20.703Z,90.50
2019-04-27T03:23:25.614Z,90.70
2019-04-27T03:28:30.529Z,90.50
2019-04-27T03:33:35.858Z,90.80
2019-04-27T03:38:40.807Z,90.20
2019-04-27T03:43:45.649Z,90.60
2019-04-27T03:48:50.473Z,90.80
2019-04-27T03:54:00.609Z,90.60
2019-04-27T03:59:16.044Z,90.40
2019-04-27T04:04:20.874Z,90.20
2019-04-27T04:09:29.554Z,90.70
2019-04-27T04:14:36.779Z,90.90
2019-04-27T04:19:54.308Z,91.90
2019-04-27T04:24:46.881Z,92.60
2019-04-27T04:29:51.721Z,91.80
2019-04-27T04:35:14.676Z,91.40
2019-04-27T04:40:23.094Z,91.00
2019-04-27T04:45:45.703Z,90.80
2019-04-27T04:50:50.544Z,90.50
2019-04-27T04:55:55.404Z,90.50
2019-04-27T05:01:01.922Z,90.40
2019-04-27T05:06:08.693Z,90.20
2019-04-27T05:11:13.217Z,90.40
2019-04-27T05:16:18.948Z,90.30
2019-04-27T05:21:26.150Z,89.90
2019-04-27T05:26:31.084Z,89.50
2019-04-27T05:31:35.949Z,90.00
2019-04-27T05:36:48.758Z,90.30
2019-04-27T05:41:49.900Z,90.70
2019-04-27T05:46:58.791Z,90.70
2019-04-27T05:52:14.435Z,90.50
2019-04-27T05:57:15.048Z,90.30
2019-04-27T06:02:23.660Z,89.70
2019-04-27T06:07:29.706Z,89.50
2019-04-27T06:12:34.864Z,89.10
2019-04-27T06:17:39.864Z,89.00
2019-04-27T06:22:44.734Z,89.20
2019-04-27T06:27:49.673Z,89.10
2019-04-27T06:32:54.560Z,88.60
2019-04-27T06:37:59.432Z,88.20
2019-04-27T06:43:04.607Z,88.10
2019-04-27T06:48:09.747Z,88.40
2019-04-27T06:53:14.594Z,88.10
2019-04-27T06:58:20.123Z,88.00
2019-04-27T07:03:26.208Z,88.70
2019-04-27T07:08:30.982Z,88.20
2019-04-27T07:13:39.051Z,88.30
2019-04-27T07:18:43.970Z,87.90
2019-04-27T07:23:59.462Z,87.20
2019-04-27T07:29:04.484Z,86.70
2019-04-27T07:34:10.259Z,86.80
2019-04-27T07:39:16.748Z,86.60
2019-04-27T07:44:23.188Z,86.30
2019-04-27T07:49:29.082Z,86.90
2019-04-27T07:54:33.912Z,87.10
2019-04-27T07:59:41.927Z,87.10
2019-04-27T08:04:48.517Z,88.10
2019-04-27T08:09:53.830Z,88.00
2019-04-27T08:15:00.043Z,88.60
2019-04-27T08:20:06.332Z,88.00
2019-04-27T08:25:12.136Z,87.90
2019-04-27T08:30:39.358Z,87.80
2019-04-27T08:35:45.339Z,88.20
2019-04-27T08:40:51.891Z,88.60
2019-04-27T08:46:01.950Z,88.20
2019-04-27T08:51:09.431Z,87.80
2019-04-27T08:56:15.820Z,87.80
2019-04-27T09:01:20.817Z,87.40
2019-04-27T09:06:26.440Z,87.20
2019-04-27T09:11:49.476Z,87.60
2019-04-27T09:17:02.218Z,86.30
2019-04-27T09:22:13.604Z,86.50
2019-04-27T09:27:13.798Z,86.00
2019-04-27T09:32:20.048Z,86.60
2019-04-27T09:53:10.175Z,87.60
2019-04-27T09:58:15.994Z,87.30
2019-04-27T10:03:21.581Z,87.00
2019-04-27T10:08:26.495Z,87.50
2019-04-27T10:13:31.343Z,87.60
2019-04-27T10:18:36.771Z,88.20
2019-04-27T10:23:41.828Z,88.40
2019-04-27T10:28:46.729Z,88.60
2019-04-27T10:33:51.568Z,88.70
2019-04-27T10:38:56.399Z,89.90
2019-04-27T10:44:01.172Z,90.20
2019-04-27T10:49:07.508Z,90.40
2019-04-27T10:54:12.360Z,90.40
2019-04-27T10:59:17.234Z,90.40
2019-04-27T11:04:29.695Z,90.40
2019-04-27T11:09:34.830Z,90.20
2019-04-27T11:14:39.686Z,90.00
2019-04-27T11:19:46.044Z,90.40
2019-04-27T11:24:50.978Z,90.60
2019-04-27T11:29:56.385Z,90.50
2019-04-27T11:35:05.792Z,90.60
2019-04-27T11:40:12.194Z,90.20
2019-04-27T11:45:17.483Z,89.60
2019-04-27T11:50:25.639Z,89.90
2019-04-27T11:55:30.652Z,88.30
2019-04-27T12:00:36.471Z,87.50
2019-04-27T12:05:41.642Z,85.80
2019-04-27T12:10:48.258Z,85.20
2019-04-27T12:15:58.148Z,83.90
2019-04-27T12:21:06.462Z,82.50
2019-04-27T12:26:17.670Z,83.30
2019-04-27T12:31:25.781Z,83.70
2019-04-27T12:36:30.807Z,83.20
2019-04-27T12:41:37.272Z,84.00
2019-04-27T12:46:42.057Z,83.40
2019-04-27T12:51:46.847Z,83.10
2019-04-27T12:56:56.054Z,83.40
2019-04-27T13:02:01.337Z,83.10
2019-04-27T13:07:06.230Z,83.60
2019-04-27T13:12:11.037Z,84.10
2019-04-27T13:17:16.522Z,85.20
2019-04-27T13:22:21.477Z,85.70
2019-04-27T13:27:27.012Z,86.00
2019-04-27T13:32:32.572Z,86.80
2019-04-27T13:37:39.047Z,87.70
2019-04-27T13:42:57.289Z,87.80
2019-04-27T13:48:19.094Z,88.50
2019-04-27T13:53:23.961Z,88.00
2019-04-27T13:58:28.817Z,88.20
2019-04-27T14:03:34.463Z,87.20
2019-04-27T14:08:39.248Z,87.30
2019-04-27T14:13:44.088Z,88.10
2019-04-27T14:18:48.947Z,87.50
2019-04-27T14:23:53.861Z,87.60
2019-04-27T14:28:58.842Z,87.30
2019-04-27T14:34:03.694Z,87.40
2019-04-27T14:39:10.193Z,87.00
2019-04-27T14:44:14.968Z,87.70
2019-04-27T14:49:19.930Z,88.30
2019-04-27T14:54:24.760Z,87.80
2019-04-27T14:59:30.194Z,88.30
2019-04-27T15:04:37.589Z,88.30
2019-04-27T15:09:42.103Z,88.50
2019-04-27T15:14:47.199Z,88.30
2019-04-27T15:19:56.654Z,88.50
2019-04-27T15:25:13.592Z,87.70
2019-04-27T15:30:11.504Z,87.60
2019-04-27T15:35:35.457Z,87.80
2019-04-27T15:40:58.732Z,87.80
2019-04-27T15:46:03.692Z,88.40
2019-04-27T15:51:14.763Z,88.50
2019-04-27T15:56:15.149Z,88.70
2019-04-27T16:01:20.023Z,88.80
2019-04-27T16:06:25.370Z,89.80
2019-04-27T16:11:30.272Z,90.20
2019-04-27T16:16:35.145Z,90.00
2019-04-27T16:21:46.985Z,90.10
2019-04-27T16:26:51.049Z,89.70
2019-04-27T16:31:53.167Z,89.80
2019-04-27T16:36:59.164Z,89.50
2019-04-27T16:42:08.133Z,89.00
2019-04-27T16:47:12.513Z,89.10
2019-04-27T16:52:17.567Z,88.70
2019-04-27T16:57:23.407Z,88.90
2019-04-27T17:02:28.304Z,88.60
2019-04-27T17:07:37.774Z,88.00
2019-04-27T17:12:43.191Z,87.60
2019-04-27T17:17:53.693Z,87.60
2019-04-27T17:22:58.544Z,87.70
2019-04-27T17:28:05.233Z,87.50
2019-04-27T17:33:21.199Z,87.80
2019-04-27T17:38:28.681Z,87.80
2019-04-27T17:43:37.346Z,87.70
2019-04-27T17:48:40.224Z,87.50
2019-04-27T17:53:45.259Z,87.90
2019-04-27T17:58:52.292Z,88.00
2019-04-27T18:04:00.175Z,87.70
2019-04-27T18:09:08.286Z,88.00
2019-04-27T18:14:14.752Z,88.40
2019-04-27T18:19:40.325Z,88.10
2019-04-27T18:24:47.350Z,88.00
2019-04-27T18:29:52.535Z,87.90
2019-04-27T18:34:58.440Z,88.50
2019-04-27T18:40:04.585Z,88.40
2019-04-27T18:45:09.693Z,88.20
2019-04-27T18:50:25.168Z,88.00
2019-04-27T18:55:30.001Z,88.00
2019-04-27T19:00:34.919Z,87.70
2019-04-27T19:05:40.618Z,88.30
2019-04-27T19:10:45.810Z,88.40
2019-04-27T19:15:50.648Z,89.00
2019-04-27T19:20:55.491Z,89.30
2019-04-27T19:26:11.121Z,89.50
2019-04-27T19:31:20.577Z,89.90
2019-04-27T19:36:25.420Z,90.00
2019-04-27T19:41:30.218Z,90.00
2019-04-27T19:46:35.122Z,90.30
2019-04-27T19:51:39.980Z,90.10
2019-04-27T19:56:44.773Z,89.90
2019-04-27T20:01:51.340Z,90.00
2019-04-27T20:06:56.262Z,90.20
2019-04-27T20:12:02.879Z,90.20
2019-04-27T20:17:07.899Z,89.80
2019-04-27T20:22:12.736Z,89.90
2019-04-27T20:27:17.766Z,90.40
2019-04-27T20:32:22.645Z,90.40
2019-04-27T20:37:27.587Z,90.40
2019-04-27T20:42:32.424Z,90.40
2019-04-27T20:47:37.314Z,91.00
2019-04-27T20:52:43.803Z,91.00
2019-04-27T20:57:58.723Z,91.10
2019-04-27T21:03:05.941Z,91.90
2019-04-27T21:08:15.367Z,91.60
2019-04-27T21:13:20.228Z,91.20
2019-04-27T21:18:25.104Z,90.10
2019-04-27T21:23:31.204Z,90.20
2019-04-27T21:28:36.178Z,89.20
2019-04-27T21:33:40.982Z,89.80
2019-04-27T21:38:45.791Z,89.80
2019-04-27T21:43:51.247Z,90.00
2019-04-27T21:48:56.374Z,90.40
2019-04-27T21:54:08.592Z,90.90
2019-04-27T21:59:13.445Z,91.50
2019-04-27T22:04:18.642Z,91.90
2019-04-27T22:09:23.492Z,92.10
2019-04-27T22:14:28.324Z,92.10
2019-04-27T22:19:33.234Z,92.10
2019-04-27T22:24:42.788Z,92.30
2019-04-27T22:29:45.940Z,92.90
2019-04-27T22:34:50.851Z,93.40
2019-04-27T22:39:57.377Z,94.10
2019-04-27T22:45:03.861Z,94.40
2019-04-27T22:50:08.695Z,95.10
2019-04-27T22:55:13.549Z,95.60
2019-04-27T23:00:36.495Z,96.20
2019-04-27T23:05:42.995Z,96.30
2019-04-27T23:10:48.111Z,95.80
2019-04-27T23:15:54.590Z,95.80
2019-04-27T23:21:01.329Z,96.00
2019-04-27T23:26:05.892Z,96.00
2019-04-27T23:31:15.029Z,95.50
2019-04-27T23:36:21.105Z,95.40
2019-04-27T23:41:26.433Z,95.30
2019-04-27T23:46:31.338Z,95.80
2019-04-27T23:51:52.995Z,95.60
2019-04-27T23:56:57.836Z,95.50
